createdAt,value
2019-03-31T00:02:00.441Z,54.50
2019-03-31T00:04:26.308Z,50.40
2019-03-31T00:06:52.194Z,50.67
2019-03-31T00:09:18.262Z,54.00
2019-03-31T00:11:44.283Z,51.37
2019-03-31T00:14:10.247Z,53.47
2019-03-31T00:16:36.163Z,56.07
2019-03-31T00:19:02.109Z,53.57
2019-03-31T00:21:28.100Z,53.13
2019-03-31T00:23:53.912Z,50.63
2019-03-31T00:26:19.854Z,51.40
2019-03-31T00:28:45.697Z,51.93
2019-03-31T00:31:21.906Z,55.33
2019-03-31T00:33:40.112Z,53.37
2019-03-31T00:36:05.923Z,52.57
2019-03-31T00:38:31.869Z,50.87
2019-03-31T00:40:57.759Z,48.70
2019-03-31T00:43:23.589Z,54.57
2019-03-31T00:45:49.421Z,49.53
2019-03-31T00:48:15.450Z,48.87
2019-03-31T00:50:41.372Z,52.93
2019-03-31T00:53:07.309Z,48.93
2019-03-31T00:55:33.377Z,52.00
2019-03-31T00:57:59.188Z,55.43
2019-03-31T01:00:45.572Z,52.63
2019-03-31T01:03:11.501Z,49.07
2019-03-31T01:05:40.642Z,53.33
2019-03-31T01:08:06.739Z,50.97
2019-03-31T01:10:32.867Z,51.57
2019-03-31T01:12:59.110Z,54.70
2019-03-31T01:15:26.735Z,47.90
2019-03-31T01:17:53.279Z,52.03
2019-03-31T01:20:19.205Z,49.13
2019-03-31T01:22:45.191Z,53.57
2019-03-31T01:25:12.912Z,53.13
2019-03-31T01:27:39.041Z,55.03
2019-03-31T01:30:05.804Z,49.00
2019-03-31T01:32:31.854Z,56.67
2019-03-31T01:35:01.180Z,50.87
2019-03-31T01:37:27.354Z,50.90
2019-03-31T01:39:54.002Z,55.27
2019-03-31T01:42:20.219Z,49.00
2019-03-31T01:44:46.163Z,48.30
2019-03-31T01:47:13.187Z,51.83
2019-03-31T01:49:39.171Z,47.47
2019-03-31T01:52:05.114Z,51.30
2019-03-31T01:54:30.937Z,49.03
2019-03-31T01:56:56.934Z,52.87
2019-03-31T01:59:22.770Z,46.10
2019-03-31T02:01:48.679Z,46.53
2019-03-31T02:04:14.647Z,50.87
2019-03-31T02:06:40.679Z,55.27
2019-03-31T02:09:06.960Z,54.17
2019-03-31T02:11:33.030Z,55.60
2019-03-31T02:13:58.997Z,51.73
2019-03-31T02:16:25.183Z,48.73
2019-03-31T02:18:51.037Z,50.70
2019-03-31T02:21:16.872Z,51.80
2019-03-31T02:23:42.843Z,48.10
2019-03-31T02:26:08.873Z,54.30
2019-03-31T02:28:34.841Z,47.47
2019-03-31T02:31:00.932Z,48.77
2019-03-31T02:33:26.755Z,48.83
2019-03-31T02:35:52.817Z,49.63
2019-03-31T02:38:18.921Z,50.93
2019-03-31T02:40:44.777Z,45.00
2019-03-31T02:43:10.586Z,43.97
2019-03-31T02:45:36.489Z,53.47
2019-03-31T02:48:02.504Z,50.77
2019-03-31T02:50:38.545Z,44.00
2019-03-31T02:53:04.483Z,47.37
2019-03-31T02:55:30.921Z,44.73
2019-03-31T02:57:56.989Z,48.77
2019-03-31T03:00:23.063Z,48.67
2019-03-31T03:02:49.202Z,50.13
2019-03-31T03:05:20.021Z,50.97
2019-03-31T03:07:46.737Z,51.17
2019-03-31T03:10:12.747Z,47.73
2019-03-31T03:12:40.506Z,46.53
2019-03-31T03:15:06.551Z,45.60
2019-03-31T03:17:32.530Z,53.17
2019-03-31T03:19:58.364Z,48.43
2019-03-31T03:22:24.254Z,47.83
2019-03-31T03:24:50.080Z,46.73
2019-03-31T03:27:15.890Z,49.97
2019-03-31T03:29:41.890Z,48.17
2019-03-31T03:32:07.949Z,49.07
2019-03-31T03:34:34.116Z,53.67
2019-03-31T03:37:00.086Z,48.13
2019-03-31T03:39:25.928Z,49.80
2019-03-31T03:41:51.759Z,47.90
2019-03-31T03:44:17.614Z,46.00
2019-03-31T03:46:43.465Z,48.97
2019-03-31T03:49:09.529Z,46.57
2019-03-31T03:51:35.815Z,52.40
2019-03-31T03:54:01.663Z,47.33
2019-03-31T03:56:29.264Z,50.47
2019-03-31T03:58:55.372Z,53.67
2019-03-31T04:01:22.277Z,46.77
2019-03-31T04:03:48.068Z,49.27
2019-03-31T04:06:14.124Z,51.83
2019-03-31T04:08:40.093Z,44.17
2019-03-31T04:11:12.151Z,48.00
2019-03-31T04:13:37.990Z,49.37
2019-03-31T04:16:03.935Z,44.67
2019-03-31T04:18:29.784Z,46.43
2019-03-31T04:20:55.655Z,45.47
2019-03-31T04:23:21.490Z,46.87
2019-03-31T04:25:47.323Z,47.10
2019-03-31T04:28:13.310Z,50.33
2019-03-31T04:30:39.145Z,50.17
2019-03-31T04:33:05.134Z,47.33
2019-03-31T04:35:30.970Z,49.17
2019-03-31T04:37:56.893Z,42.43
2019-03-31T04:40:22.807Z,53.50
2019-03-31T04:42:48.634Z,46.70
2019-03-31T04:45:14.579Z,48.43
2019-03-31T04:47:40.534Z,45.00
2019-03-31T04:50:06.972Z,50.03
2019-03-31T04:52:32.893Z,45.93
2019-03-31T04:54:58.817Z,51.60
2019-03-31T04:57:24.657Z,45.13
2019-03-31T04:59:50.547Z,46.10
2019-03-31T05:02:16.390Z,44.90
2019-03-31T05:04:42.298Z,47.40
2019-03-31T05:07:08.191Z,51.07
2019-03-31T05:09:34.031Z,50.67
2019-03-31T05:12:00.013Z,47.73
2019-03-31T05:14:25.888Z,52.13
2019-03-31T05:16:51.733Z,47.27
2019-03-31T05:19:17.686Z,43.90
2019-03-31T05:21:43.656Z,43.07
2019-03-31T05:24:09.487Z,47.10
2019-03-31T05:26:35.342Z,47.10
2019-03-31T05:29:01.208Z,43.87
2019-03-31T05:31:27.148Z,45.77
2019-03-31T05:33:53.002Z,47.60
2019-03-31T05:36:18.863Z,45.90
2019-03-31T05:38:44.680Z,48.60
2019-03-31T05:41:10.674Z,52.00
2019-03-31T05:43:36.599Z,47.70
2019-03-31T05:46:02.651Z,48.83
2019-03-31T05:48:28.515Z,50.43
2019-03-31T05:50:54.349Z,46.33
2019-03-31T05:53:20.187Z,47.07
2019-03-31T05:55:46.190Z,46.47
2019-03-31T05:58:12.009Z,49.40
2019-03-31T06:00:39.915Z,44.80
2019-03-31T06:03:05.890Z,46.20
2019-03-31T06:05:31.827Z,48.47
2019-03-31T06:07:57.713Z,46.10
2019-03-31T06:10:23.654Z,48.53
2019-03-31T06:12:49.724Z,50.23
2019-03-31T06:15:15.660Z,47.67
2019-03-31T06:17:41.497Z,47.87
2019-03-31T06:20:07.436Z,51.67
2019-03-31T06:22:33.305Z,47.60
2019-03-31T06:24:59.157Z,48.50
2019-03-31T06:27:24.992Z,49.20
2019-03-31T06:29:51.046Z,50.20
2019-03-31T06:32:17.023Z,45.53
2019-03-31T06:34:47.645Z,47.37
2019-03-31T06:37:10.631Z,49.40
2019-03-31T06:39:36.476Z,48.43
2019-03-31T06:42:02.588Z,47.10
2019-03-31T06:44:28.438Z,46.57
2019-03-31T06:46:54.277Z,50.60
2019-03-31T06:49:20.249Z,51.13
2019-03-31T06:51:46.103Z,46.50
2019-03-31T06:54:12.119Z,49.90
2019-03-31T06:56:38.033Z,45.60
2019-03-31T06:59:03.873Z,47.43
2019-03-31T07:01:29.701Z,45.60
2019-03-31T07:03:55.579Z,51.73
2019-03-31T07:06:21.511Z,50.53
2019-03-31T07:08:47.481Z,49.50
2019-03-31T07:11:13.430Z,46.40
2019-03-31T07:13:39.313Z,49.83
2019-03-31T07:16:05.220Z,51.93
2019-03-31T07:18:31.174Z,45.83
2019-03-31T07:20:57.008Z,52.97
2019-03-31T07:23:22.855Z,47.63
2019-03-31T07:25:48.704Z,52.97
2019-03-31T07:28:14.649Z,48.93
2019-03-31T07:30:40.411Z,46.60
2019-03-31T07:33:06.310Z,48.37
2019-03-31T07:35:32.221Z,47.30
2019-03-31T07:37:58.049Z,47.73
2019-03-31T07:40:24.306Z,50.53
2019-03-31T07:42:51.324Z,49.00
2019-03-31T07:45:17.675Z,51.60
2019-03-31T07:47:43.961Z,54.03
2019-03-31T07:50:12.463Z,48.00
2019-03-31T07:52:38.481Z,48.07
2019-03-31T07:55:05.193Z,50.27
2019-03-31T07:57:31.231Z,49.93
2019-03-31T07:59:57.112Z,47.00
2019-03-31T08:02:22.961Z,60.50
2019-03-31T08:04:48.796Z,54.50
2019-03-31T08:07:14.725Z,56.10
2019-03-31T08:09:40.606Z,56.20
2019-03-31T08:12:06.661Z,57.13
2019-03-31T08:14:32.493Z,54.23
2019-03-31T08:16:58.481Z,54.00
2019-03-31T08:19:24.298Z,56.13
2019-03-31T08:21:50.136Z,62.17
2019-03-31T08:24:16.200Z,56.60
2019-03-31T08:26:42.045Z,58.33
2019-03-31T08:29:07.897Z,67.10
2019-03-31T08:31:33.729Z,62.17
2019-03-31T08:33:59.584Z,60.23
2019-03-31T08:36:25.438Z,63.17
2019-03-31T08:38:51.278Z,60.63
2019-03-31T08:41:17.148Z,60.63
2019-03-31T08:43:42.957Z,61.83
2019-03-31T08:46:08.785Z,62.50
2019-03-31T08:48:34.666Z,60.33
2019-03-31T08:51:00.510Z,57.47
2019-03-31T08:53:30.587Z,60.27
2019-03-31T08:55:56.468Z,61.67
2019-03-31T08:58:22.399Z,61.70
2019-03-31T09:00:50.266Z,62.67
2019-03-31T09:03:16.186Z,65.42
2019-03-31T09:05:42.168Z,61.30
2019-03-31T09:08:07.987Z,65.63
2019-03-31T09:10:33.843Z,63.73
2019-03-31T09:12:59.731Z,61.43
2019-03-31T09:15:25.582Z,62.97
2019-03-31T09:17:54.032Z,62.73
2019-03-31T09:20:19.347Z,65.83
2019-03-31T09:22:45.171Z,63.17
2019-03-31T09:25:11.396Z,60.27
2019-03-31T09:27:37.406Z,68.47
2019-03-31T09:30:06.847Z,62.57
2019-03-31T09:32:32.773Z,61.67
2019-03-31T09:34:58.766Z,67.30
2019-03-31T09:37:24.592Z,60.50
2019-03-31T09:39:50.413Z,67.30
2019-03-31T09:42:16.307Z,62.00
2019-03-31T09:44:42.341Z,65.17
2019-03-31T09:47:08.270Z,62.03
2019-03-31T09:49:34.156Z,67.00
2019-03-31T09:52:00.088Z,64.10
2019-03-31T09:54:29.396Z,63.53
2019-03-31T09:56:55.216Z,64.23
2019-03-31T09:59:21.259Z,66.13
2019-03-31T10:01:47.252Z,61.77
2019-03-31T10:04:13.172Z,66.53
2019-03-31T10:06:39.101Z,68.97
2019-03-31T10:09:05.296Z,59.63
2019-03-31T10:11:31.239Z,60.47
2019-03-31T10:13:57.068Z,59.97
2019-03-31T10:16:23.165Z,57.30
2019-03-31T10:18:48.992Z,58.83
2019-03-31T10:21:14.865Z,61.03
2019-03-31T10:23:40.701Z,64.47
2019-03-31T10:26:06.635Z,67.10
2019-03-31T10:28:32.619Z,59.63
2019-03-31T10:30:58.484Z,62.17
2019-03-31T10:33:24.289Z,58.07
2019-03-31T10:35:50.183Z,59.90
2019-03-31T10:38:16.102Z,62.27
2019-03-31T10:40:42.062Z,56.40
2019-03-31T10:43:08.117Z,58.73
2019-03-31T10:45:34.161Z,61.70
2019-03-31T10:47:59.983Z,61.03
2019-03-31T10:50:26.029Z,59.80
2019-03-31T10:52:51.875Z,63.30
2019-03-31T10:55:17.867Z,59.60
2019-03-31T10:57:43.810Z,60.50
2019-03-31T11:00:10.338Z,62.83
2019-03-31T11:02:36.343Z,58.10
2019-03-31T11:05:04.553Z,53.93
2019-03-31T11:07:30.491Z,55.40
2019-03-31T11:09:56.402Z,59.77
2019-03-31T11:12:22.223Z,65.03
2019-03-31T11:14:48.253Z,55.00
2019-03-31T11:17:14.228Z,61.03
2019-03-31T11:19:40.169Z,56.87
2019-03-31T11:22:20.191Z,58.33
2019-03-31T11:24:46.266Z,56.83
2019-03-31T11:27:12.115Z,53.37
2019-03-31T11:29:38.062Z,49.73
2019-03-31T11:32:03.914Z,52.33
2019-03-31T11:34:29.902Z,53.57
2019-03-31T11:36:55.826Z,54.43
2019-03-31T11:39:21.968Z,54.73
2019-03-31T11:41:47.796Z,50.07
2019-03-31T11:44:13.773Z,54.03
2019-03-31T11:46:39.699Z,51.27
2019-03-31T11:49:05.739Z,54.00
2019-03-31T11:51:31.607Z,54.23
2019-03-31T11:53:57.461Z,57.80
2019-03-31T11:56:23.332Z,57.97
2019-03-31T11:58:49.219Z,53.77
2019-03-31T12:01:15.359Z,52.10
2019-03-31T12:03:41.412Z,50.37
2019-03-31T12:06:11.050Z,49.90
2019-03-31T12:08:35.456Z,54.67
2019-03-31T12:11:01.312Z,47.73
2019-03-31T12:13:27.202Z,51.37
2019-03-31T12:15:53.028Z,58.07
2019-03-31T12:18:18.900Z,46.93
2019-03-31T12:20:44.826Z,51.17
2019-03-31T12:23:10.658Z,56.83
2019-03-31T12:25:36.604Z,54.53
2019-03-31T12:28:02.665Z,61.17
2019-03-31T12:30:28.846Z,52.20
2019-03-31T12:32:56.296Z,56.03
2019-03-31T12:35:22.245Z,52.60
2019-03-31T12:37:48.301Z,54.20
2019-03-31T12:40:17.933Z,52.63
2019-03-31T12:42:43.899Z,55.43
2019-03-31T12:45:10.055Z,47.70
2019-03-31T12:47:35.864Z,47.20
2019-03-31T12:50:03.352Z,50.87
2019-03-31T12:52:29.358Z,53.33
2019-03-31T12:54:55.183Z,47.53
2019-03-31T12:57:21.078Z,52.83
2019-03-31T12:59:46.893Z,48.67
2019-03-31T13:02:12.728Z,47.53
2019-03-31T13:04:38.713Z,46.77
2019-03-31T13:07:04.651Z,46.90
2019-03-31T13:09:30.576Z,48.30
2019-03-31T13:11:56.551Z,44.70
2019-03-31T13:14:22.501Z,44.08
2019-03-31T13:16:48.339Z,38.65
2019-03-31T13:19:14.306Z,39.50
2019-03-31T13:21:40.124Z,43.90
2019-03-31T13:24:06.177Z,37.85
2019-03-31T13:26:32.227Z,40.15
2019-03-31T13:28:58.059Z,40.05
2019-03-31T13:31:23.888Z,39.23
2019-03-31T13:33:49.771Z,37.78
2019-03-31T13:36:15.796Z,40.83
2019-03-31T13:38:41.612Z,37.88
2019-03-31T13:41:07.721Z,38.80
2019-03-31T13:43:33.596Z,39.13
2019-03-31T13:46:00.314Z,37.13
2019-03-31T13:48:26.335Z,36.60
2019-03-31T13:50:52.152Z,36.60
2019-03-31T13:53:18.007Z,40.35
2019-03-31T13:55:43.868Z,43.78
2019-03-31T13:58:10.839Z,39.38
2019-03-31T14:00:40.674Z,32.30
2019-03-31T14:03:07.163Z,37.23
2019-03-31T14:05:33.195Z,39.15
2019-03-31T14:07:59.126Z,35.35
2019-03-31T14:10:24.950Z,30.77
2019-03-31T14:12:50.796Z,33.00
2019-03-31T14:15:19.383Z,36.90
2019-03-31T14:17:44.460Z,37.80
2019-03-31T14:20:10.496Z,34.05
2019-03-31T14:22:36.372Z,32.83
2019-03-31T14:25:04.002Z,32.28
2019-03-31T14:27:29.828Z,29.72
2019-03-31T14:29:55.725Z,34.15
2019-03-31T14:32:21.586Z,32.42
2019-03-31T14:34:47.481Z,35.33
2019-03-31T14:37:13.466Z,32.65
2019-03-31T14:39:39.297Z,32.75
2019-03-31T14:42:05.327Z,31.60
2019-03-31T14:44:31.329Z,30.05
2019-03-31T14:46:57.269Z,30.43
2019-03-31T14:49:25.702Z,31.05
2019-03-31T14:51:50.914Z,31.87
2019-03-31T14:54:16.835Z,29.95
2019-03-31T14:56:42.766Z,36.10
2019-03-31T14:59:08.884Z,33.45
2019-03-31T15:01:34.705Z,30.37
2019-03-31T15:04:00.514Z,29.85
2019-03-31T15:06:26.527Z,33.95
2019-03-31T15:08:54.486Z,37.23
2019-03-31T15:11:21.997Z,30.05
2019-03-31T15:13:48.321Z,33.67
2019-03-31T15:16:14.174Z,34.13
2019-03-31T15:18:40.006Z,31.87
2019-03-31T15:21:05.907Z,34.78
2019-03-31T15:23:31.757Z,32.45
2019-03-31T15:25:57.598Z,30.97
2019-03-31T15:28:23.443Z,35.50
2019-03-31T15:30:49.283Z,31.90
2019-03-31T15:33:15.552Z,34.80
2019-03-31T15:35:41.402Z,34.33
2019-03-31T15:38:07.234Z,35.48
2019-03-31T15:40:33.181Z,34.15
2019-03-31T15:42:59.115Z,38.23
2019-03-31T15:45:25.004Z,35.58
2019-03-31T15:47:50.886Z,35.30
2019-03-31T15:50:17.139Z,36.90
2019-03-31T15:52:43.123Z,34.48
2019-03-31T15:55:09.660Z,41.23
2019-03-31T15:57:35.499Z,35.55
2019-03-31T16:00:01.738Z,32.73
2019-03-31T16:02:29.539Z,32.15
2019-03-31T16:04:55.388Z,34.40
2019-03-31T16:07:21.337Z,34.78
2019-03-31T16:09:47.367Z,35.98
2019-03-31T16:12:13.243Z,32.53
2019-03-31T16:14:39.071Z,37.48
2019-03-31T16:17:05.025Z,31.48
2019-03-31T16:19:30.982Z,32.78
2019-03-31T16:21:56.850Z,34.25
2019-03-31T16:24:24.602Z,41.75
2019-03-31T16:26:52.970Z,31.73
2019-03-31T16:29:18.248Z,34.20
2019-03-31T16:31:44.125Z,40.50
2019-03-31T16:34:10.006Z,38.53
2019-03-31T16:36:35.873Z,41.55
2019-03-31T16:39:01.694Z,45.95
2019-03-31T16:41:27.563Z,44.42
2019-03-31T16:43:53.496Z,42.20
2019-03-31T16:46:19.391Z,40.35
2019-03-31T16:48:45.260Z,36.90
2019-03-31T16:51:11.087Z,40.88
2019-03-31T16:53:36.998Z,39.35
2019-03-31T16:56:03.094Z,41.70
2019-03-31T16:58:28.937Z,42.10
2019-03-31T17:00:54.895Z,42.58
2019-03-31T17:03:20.767Z,45.10
2019-03-31T17:05:46.634Z,41.13
2019-03-31T17:08:12.530Z,40.67
2019-03-31T17:10:38.570Z,46.20
2019-03-31T17:13:04.560Z,44.80
2019-03-31T17:15:30.407Z,42.17
2019-03-31T17:17:56.245Z,45.77
2019-03-31T17:20:22.203Z,41.97
2019-03-31T17:22:48.083Z,45.33
2019-03-31T17:25:13.986Z,47.07
2019-03-31T17:27:39.837Z,40.90
2019-03-31T17:30:07.191Z,42.27
2019-03-31T17:32:33.102Z,45.63
2019-03-31T17:34:59.051Z,41.03
2019-03-31T17:37:24.859Z,48.47
2019-03-31T17:40:05.143Z,42.73
2019-03-31T17:42:18.885Z,48.57
2019-03-31T17:44:44.847Z,46.17
2019-03-31T17:47:10.740Z,42.40
2019-03-31T17:49:36.617Z,41.07
2019-03-31T17:52:02.602Z,41.50
2019-03-31T17:54:28.522Z,47.03
2019-03-31T17:56:54.350Z,44.33
2019-03-31T17:59:20.222Z,44.37
2019-03-31T18:01:46.289Z,46.77
2019-03-31T18:04:12.210Z,47.33
2019-03-31T18:06:38.038Z,46.50
2019-03-31T18:09:06.908Z,44.90
2019-03-31T18:11:32.756Z,47.77
2019-03-31T18:13:58.651Z,45.37
2019-03-31T18:16:24.647Z,45.27
2019-03-31T18:18:50.801Z,52.00
2019-03-31T18:21:16.783Z,50.23
2019-03-31T18:23:42.663Z,48.70
2019-03-31T18:26:08.687Z,55.33
2019-03-31T18:28:34.534Z,49.17
2019-03-31T18:31:00.505Z,50.23
2019-03-31T18:33:26.433Z,48.97
2019-03-31T18:35:52.577Z,46.00
2019-03-31T18:38:18.930Z,47.50
2019-03-31T18:40:48.128Z,44.13
2019-03-31T18:43:13.952Z,43.63
2019-03-31T18:45:39.843Z,49.27
2019-03-31T18:48:05.912Z,43.53
2019-03-31T18:50:31.973Z,46.40
2019-03-31T18:53:01.958Z,49.83
2019-03-31T18:55:41.592Z,51.57
2019-03-31T18:58:27.743Z,46.20
2019-03-31T19:00:58.413Z,52.60
2019-03-31T19:03:34.937Z,50.80
2019-03-31T19:06:05.724Z,61.93
2019-03-31T19:08:51.748Z,58.30
2019-03-31T19:11:25.383Z,58.57
2019-03-31T19:14:09.748Z,60.73
2019-03-31T19:16:55.681Z,60.27
2019-03-31T19:19:29.255Z,52.77
2019-03-31T19:22:12.116Z,56.63
2019-03-31T19:24:46.286Z,48.70
2019-03-31T19:27:22.890Z,49.30
2019-03-31T19:29:53.497Z,56.57
2019-03-31T19:32:27.042Z,55.07
2019-03-31T19:34:54.925Z,53.63
2019-03-31T19:37:34.673Z,51.13
2019-03-31T19:40:19.306Z,51.97
2019-03-31T19:42:47.145Z,53.93
2019-03-31T19:45:23.956Z,50.27
2019-03-31T19:47:51.924Z,51.93
2019-03-31T19:50:31.836Z,55.57
2019-03-31T19:53:16.315Z,53.30
2019-03-31T19:55:49.961Z,48.60
2019-03-31T19:58:17.702Z,52.27
2019-03-31T20:00:45.728Z,48.50
2019-03-31T20:03:22.812Z,52.47
2019-03-31T20:05:59.922Z,49.30
2019-03-31T20:08:44.504Z,49.47
2019-03-31T20:11:18.051Z,47.20
2019-03-31T20:14:11.090Z,51.70
2019-03-31T20:16:45.211Z,51.27
2019-03-31T20:19:15.771Z,55.57
2019-03-31T20:21:52.549Z,47.50
2019-03-31T20:24:29.302Z,55.17
2019-03-31T20:26:57.308Z,49.70
2019-03-31T20:29:35.802Z,50.13
2019-03-31T20:32:19.230Z,46.80
2019-03-31T20:34:53.187Z,50.53
2019-03-31T20:37:26.093Z,52.70
2019-03-31T20:39:56.915Z,46.73
2019-03-31T20:42:39.131Z,48.93
2019-03-31T20:45:06.339Z,48.50
2019-03-31T20:47:34.307Z,46.63
2019-03-31T20:50:00.440Z,48.10
2019-03-31T20:52:26.659Z,51.27
2019-03-31T20:54:52.844Z,53.00
2019-03-31T20:57:18.940Z,47.57
2019-03-31T20:59:45.220Z,46.47
2019-03-31T21:02:13.137Z,46.50
2019-03-31T21:04:39.350Z,47.90
2019-03-31T21:07:05.296Z,47.97
2019-03-31T21:09:44.204Z,50.37
2019-03-31T21:11:59.188Z,47.63
2019-03-31T21:14:25.020Z,51.70
2019-03-31T21:16:50.970Z,46.67
2019-03-31T21:19:19.134Z,50.97
2019-03-31T21:21:44.758Z,50.77
2019-03-31T21:24:10.683Z,54.03
2019-03-31T21:26:36.527Z,54.63
2019-03-31T21:29:02.339Z,47.57
2019-03-31T21:31:28.431Z,48.63
2019-03-31T21:33:54.513Z,47.23
2019-03-31T21:36:20.355Z,47.83
2019-03-31T21:38:46.504Z,50.80
2019-03-31T21:41:14.126Z,48.33
2019-03-31T21:43:40.315Z,42.87
2019-03-31T21:46:06.335Z,45.87
2019-03-31T21:48:34.069Z,54.77
2019-03-31T21:50:59.929Z,47.07
2019-03-31T21:53:28.859Z,53.70
2019-03-31T21:55:54.723Z,47.20
2019-03-31T21:58:20.591Z,54.80
2019-03-31T22:00:51.300Z,49.67
2019-03-31T22:03:19.611Z,51.63
2019-03-31T22:05:45.718Z,48.23
2019-03-31T22:08:11.539Z,45.90
2019-03-31T22:10:37.376Z,51.63
2019-03-31T22:13:03.249Z,49.90
2019-03-31T22:15:29.073Z,47.57
2019-03-31T22:17:55.036Z,50.80
2019-03-31T22:20:21.616Z,45.90
2019-03-31T22:22:47.452Z,48.70
2019-03-31T22:25:13.459Z,46.73
2019-03-31T22:27:39.446Z,44.63
2019-03-31T22:30:05.730Z,48.67
2019-03-31T22:32:31.640Z,46.13
2019-03-31T22:34:57.818Z,50.93
2019-03-31T22:37:29.818Z,46.53
2019-03-31T22:39:59.104Z,49.17
2019-03-31T22:42:25.028Z,51.57
2019-03-31T22:44:50.859Z,46.83
2019-03-31T22:47:20.020Z,49.33
2019-03-31T22:49:48.869Z,43.23
2019-03-31T22:52:14.751Z,48.60
2019-03-31T22:54:43.486Z,51.97
2019-03-31T22:57:09.303Z,48.77
2019-03-31T22:59:35.279Z,49.93
2019-03-31T23:02:01.519Z,48.77
2019-03-31T23:04:27.352Z,45.77
2019-03-31T23:06:54.455Z,45.17
2019-03-31T23:09:20.305Z,43.47
2019-03-31T23:11:46.246Z,50.93
2019-03-31T23:14:12.193Z,47.13
2019-03-31T23:16:38.335Z,44.17
2019-03-31T23:19:04.341Z,45.93
2019-03-31T23:21:30.165Z,45.30
2019-03-31T23:23:56.005Z,46.03
2019-03-31T23:26:21.961Z,48.37
2019-03-31T23:28:47.786Z,45.37
2019-03-31T23:31:15.197Z,44.97
2019-03-31T23:33:41.186Z,46.30
2019-03-31T23:36:07.122Z,47.63
2019-03-31T23:38:32.965Z,53.43
2019-03-31T23:40:58.945Z,46.70
2019-03-31T23:43:24.849Z,49.07
2019-03-31T23:45:50.791Z,48.13
2019-03-31T23:48:16.636Z,49.60
2019-03-31T23:50:42.558Z,47.63
2019-03-31T23:53:08.380Z,45.17
2019-03-31T23:55:34.214Z,46.67
2019-03-31T23:58:00.272Z,50.33
